createdAt,value
2018-08-27T00:00:51.993Z,97.7
2018-08-27T00:01:51.899Z,97.7
2018-08-27T00:02:52.285Z,97.6
2018-08-27T00:03:52.425Z,97.7
2018-08-27T00:04:52.356Z,97.7
2018-08-27T00:05:52.287Z,97.5
2018-08-27T00:06:52.206Z,97.5
2018-08-27T00:07:52.117Z,97.4
2018-08-27T00:08:52.029Z,97.6
2018-08-27T00:09:51.952Z,97.7
2018-08-27T00:10:51.857Z,97.6
2018-08-27T00:11:51.771Z,97.5
2018-08-27T00:12:52.135Z,97.6
2018-08-27T00:13:52.091Z,97.5
2018-08-27T00:14:52.018Z,97.6
2018-08-27T00:15:51.921Z,97.6
2018-08-27T00:16:51.823Z,97.6
2018-08-27T00:17:51.735Z,97.7
2018-08-27T00:18:51.658Z,97.6
2018-08-27T00:19:51.581Z,97.6
2018-08-27T00:20:51.493Z,97.6
2018-08-27T00:21:51.403Z,97.5
2018-08-27T00:22:51.768Z,97.6
2018-08-27T00:23:51.684Z,97.6
2018-08-27T00:24:51.638Z,97.6
2018-08-27T00:25:51.559Z,97.5
2018-08-27T00:26:51.500Z,97.6
2018-08-27T00:27:51.464Z,97.6
2018-08-27T00:28:51.364Z,97.6
2018-08-27T00:29:51.288Z,97.5
2018-08-27T00:30:51.213Z,97.4
2018-08-27T00:31:51.178Z,97.5
2018-08-27T00:32:51.553Z,97.5
2018-08-27T00:33:51.487Z,97.4
2018-08-27T00:34:51.398Z,97.5
2018-08-27T00:35:51.345Z,97.4
2018-08-27T00:36:51.278Z,97.4
2018-08-27T00:37:51.187Z,97.4
2018-08-27T00:38:51.097Z,97.5
2018-08-27T00:39:51.017Z,97.4
2018-08-27T00:40:50.938Z,97.5
2018-08-27T00:41:50.861Z,97.4
2018-08-27T00:42:51.223Z,97.5
2018-08-27T00:43:51.164Z,97.4
2018-08-27T00:44:51.104Z,97.4
2018-08-27T00:45:51.035Z,97.6
2018-08-27T00:46:50.987Z,97.4
2018-08-27T00:47:50.935Z,97.3
2018-08-27T00:48:50.854Z,97.2
2018-08-27T00:49:50.768Z,97
2018-08-27T00:50:50.685Z,97
2018-08-27T00:51:50.593Z,97
2018-08-27T00:52:50.988Z,97.1
2018-08-27T00:53:50.924Z,97.1
2018-08-27T00:54:50.841Z,97
2018-08-27T00:55:50.777Z,96.9
2018-08-27T00:56:50.686Z,97.1
2018-08-27T00:57:50.626Z,97.3
2018-08-27T00:58:50.561Z,97.1
2018-08-27T00:59:50.687Z,97.1
2018-08-27T01:00:50.618Z,97
2018-08-27T01:01:50.553Z,97
2018-08-27T01:02:51.037Z,97
2018-08-27T01:03:50.957Z,96.9
2018-08-27T01:04:50.883Z,96.9
2018-08-27T01:05:50.803Z,96.9
2018-08-27T01:06:50.717Z,97
2018-08-27T01:07:50.672Z,97
2018-08-27T01:08:50.595Z,97
2018-08-27T01:09:50.513Z,96.9
2018-08-27T01:10:50.434Z,96.9
2018-08-27T01:11:50.335Z,96.9
2018-08-27T01:12:50.673Z,96.8
2018-08-27T01:13:50.604Z,96.9
2018-08-27T01:14:50.761Z,96.9
2018-08-27T01:15:50.680Z,97
2018-08-27T01:16:50.632Z,97
2018-08-27T01:17:50.560Z,96.9
2018-08-27T01:18:50.470Z,96.9
2018-08-27T01:19:50.422Z,96.9
2018-08-27T01:20:50.333Z,96.7
2018-08-27T01:21:50.486Z,96.7
2018-08-27T01:22:51.243Z,96.7
2018-08-27T01:23:51.169Z,96.7
2018-08-27T01:24:51.129Z,96.8
2018-08-27T01:25:51.058Z,96.8
2018-08-27T01:26:50.992Z,96.7
2018-08-27T01:27:50.971Z,96.7
2018-08-27T01:28:50.923Z,96.8
2018-08-27T01:29:50.859Z,97.1
2018-08-27T01:30:50.833Z,96.7
2018-08-27T01:31:50.746Z,96.8
2018-08-27T01:32:52.331Z,96.8
2018-08-27T01:33:52.243Z,96.6
2018-08-27T01:34:52.201Z,96.7
2018-08-27T01:35:52.125Z,96.7
2018-08-27T01:36:52.053Z,96.4
2018-08-27T01:37:51.962Z,96.5
2018-08-27T01:38:51.843Z,96.6
2018-08-27T01:40:00.625Z,96.6
2018-08-27T01:41:00.571Z,96.6
2018-08-27T01:42:00.486Z,96.7
2018-08-27T01:43:00.855Z,96.7
2018-08-27T01:44:00.769Z,96.8
2018-08-27T01:45:00.699Z,96.8
2018-08-27T01:46:00.630Z,96.9
2018-08-27T01:47:00.571Z,97
2018-08-27T01:48:00.485Z,97
2018-08-27T01:49:00.419Z,97.1
2018-08-27T01:50:00.328Z,97
2018-08-27T01:51:03.967Z,97.1
2018-08-27T01:52:03.894Z,97.1
2018-08-27T01:53:04.270Z,97.2
2018-08-27T01:54:04.191Z,97.2
2018-08-27T01:55:04.121Z,97.2
2018-08-27T01:56:04.030Z,97.3
2018-08-27T01:57:04.038Z,97.3
2018-08-27T01:58:03.955Z,97.3
2018-08-27T01:59:03.868Z,97.3
2018-08-27T02:00:03.800Z,97.3
2018-08-27T02:01:03.963Z,97.3
2018-08-27T02:02:03.894Z,97.3
2018-08-27T02:03:04.263Z,97.3
2018-08-27T02:04:04.242Z,97.7
2018-08-27T02:05:04.149Z,97.4
2018-08-27T02:06:04.070Z,97.4
2018-08-27T02:07:04.043Z,97.4
2018-08-27T02:08:03.955Z,97.4
2018-08-27T02:09:06.626Z,97.5
2018-08-27T02:10:06.561Z,97.5
2018-08-27T02:11:06.496Z,97.6
2018-08-27T02:12:06.429Z,97.7
2018-08-27T02:13:07.785Z,97.7
2018-08-27T02:14:07.935Z,97.6
2018-08-27T02:15:07.858Z,97.7
2018-08-27T02:16:07.777Z,97.5
2018-08-27T02:17:07.760Z,97.6
2018-08-27T02:18:07.664Z,97.4
2018-08-27T02:19:07.576Z,97.4
2018-08-27T02:20:07.490Z,97.5
2018-08-27T02:21:07.489Z,97.5
2018-08-27T02:22:07.428Z,97.5
2018-08-27T02:23:07.828Z,97.3
2018-08-27T02:24:07.745Z,97.3
2018-08-27T02:25:07.720Z,97.3
2018-08-27T02:26:07.625Z,97.3
2018-08-27T02:27:07.539Z,97.3
2018-08-27T02:28:07.465Z,97.3
2018-08-27T02:29:07.395Z,97.3
2018-08-27T02:30:07.548Z,97.2
2018-08-27T02:31:07.481Z,97.2
2018-08-27T02:32:07.413Z,97.2
2018-08-27T02:33:08.014Z,97.1
2018-08-27T02:34:07.925Z,97.1
2018-08-27T02:35:08.450Z,97.1
2018-08-27T02:36:08.718Z,97
2018-08-27T02:37:08.627Z,97.1
2018-08-27T02:38:08.656Z,97.1
2018-08-27T02:39:08.591Z,97
2018-08-27T02:40:08.502Z,97
2018-08-27T02:41:08.409Z,97.1
2018-08-27T02:42:08.338Z,97
2018-08-27T02:43:08.752Z,97
2018-08-27T02:44:08.915Z,97
2018-08-27T02:45:08.820Z,97
2018-08-27T02:46:08.773Z,97.1
2018-08-27T02:47:08.764Z,97.1
2018-08-27T02:48:08.688Z,97.2
2018-08-27T02:49:08.687Z,97.2
2018-08-27T02:50:08.648Z,97.1
2018-08-27T02:51:08.572Z,97.2
2018-08-27T02:52:08.487Z,97.2
2018-08-27T02:53:08.877Z,97.1
2018-08-27T02:54:08.789Z,97.2
2018-08-27T02:55:08.736Z,97.3
2018-08-27T02:56:08.649Z,97.3
2018-08-27T02:57:08.567Z,97.2
2018-08-27T02:58:08.477Z,97.1
2018-08-27T02:59:08.409Z,97.1
2018-08-27T03:00:08.347Z,97
2018-08-27T03:01:08.275Z,97.1
2018-08-27T03:02:08.229Z,97.1
2018-08-27T03:03:08.615Z,97
2018-08-27T03:04:08.525Z,97
2018-08-27T03:05:11.447Z,97
2018-08-27T03:06:11.359Z,96.9
2018-08-27T03:07:11.316Z,97
2018-08-27T03:08:11.268Z,97
2018-08-27T03:09:11.191Z,97.1
2018-08-27T03:10:11.106Z,97.1
2018-08-27T03:11:11.034Z,97.1
2018-08-27T03:12:10.942Z,97
2018-08-27T03:13:11.331Z,97
2018-08-27T03:14:11.263Z,97
2018-08-27T03:15:11.165Z,97
2018-08-27T03:16:11.091Z,97.1
2018-08-27T03:17:11.003Z,97
2018-08-27T03:18:10.930Z,97.1
2018-08-27T03:19:10.845Z,97.1
2018-08-27T03:20:10.774Z,97.1
2018-08-27T03:21:10.710Z,97.1
2018-08-27T03:22:10.622Z,97.3
2018-08-27T03:23:10.978Z,97.3
2018-08-27T03:24:10.897Z,97.3
2018-08-27T03:25:11.076Z,97.4
2018-08-27T03:26:11.246Z,97.3
2018-08-27T03:27:11.172Z,97.4
2018-08-27T03:28:11.311Z,97.4
2018-08-27T03:29:11.263Z,97.5
2018-08-27T03:30:11.191Z,97.4
2018-08-27T03:31:11.345Z,97.5
2018-08-27T03:32:11.310Z,97.4
2018-08-27T03:33:14.496Z,97.5
2018-08-27T03:34:14.643Z,97.5
2018-08-27T03:35:18.472Z,97.5
2018-08-27T03:36:18.405Z,97.5
2018-08-27T03:37:18.316Z,97.5
2018-08-27T03:38:23.894Z,97.4
2018-08-27T03:39:23.809Z,97.4
2018-08-27T03:40:23.758Z,97.2
2018-08-27T03:41:23.716Z,97.4
2018-08-27T03:42:27.447Z,97.4
2018-08-27T03:43:27.855Z,97.5
2018-08-27T03:44:27.769Z,97.5
2018-08-27T03:45:30.105Z,97.6
2018-08-27T03:46:30.058Z,97.6
2018-08-27T03:47:30.989Z,97.7
2018-08-27T03:48:31.117Z,97.6
2018-08-27T03:49:31.198Z,97.6
2018-08-27T03:50:31.139Z,97.6
2018-08-27T03:51:31.083Z,97.6
2018-08-27T03:52:31.017Z,97.6
2018-08-27T03:53:31.367Z,97.7
2018-08-27T03:54:31.773Z,97.7
2018-08-27T03:55:31.684Z,97.8
2018-08-27T03:56:32.588Z,97.7
2018-08-27T03:57:35.075Z,97.8
2018-08-27T03:58:35.028Z,97.8
2018-08-27T03:59:34.945Z,97.8
2018-08-27T04:00:35.099Z,97.9
2018-08-27T04:01:35.022Z,97.8
2018-08-27T04:02:34.943Z,97.7
2018-08-27T04:03:38.068Z,97.7
2018-08-27T04:04:37.977Z,97.7
2018-08-27T04:05:37.922Z,97.7
2018-08-27T04:06:37.912Z,97.7
2018-08-27T04:07:37.862Z,97.7
2018-08-27T04:08:37.806Z,97.6
2018-08-27T04:09:37.721Z,97.7
2018-08-27T04:10:37.630Z,97.8
2018-08-27T04:11:37.533Z,97.8
2018-08-27T04:12:37.494Z,97.8
2018-08-27T04:13:37.875Z,97.9
2018-08-27T04:14:37.808Z,98
2018-08-27T04:15:37.714Z,97.8
2018-08-27T04:16:37.638Z,97.7
2018-08-27T04:17:37.610Z,97.7
2018-08-27T04:18:37.534Z,97.8
2018-08-27T04:19:37.490Z,97.7
2018-08-27T04:20:37.397Z,97.7
2018-08-27T04:21:37.330Z,97.6
2018-08-27T04:22:37.277Z,97.5
2018-08-27T04:23:37.666Z,97.5
2018-08-27T04:24:37.588Z,97.4
2018-08-27T04:25:37.493Z,97.4
2018-08-27T04:26:37.433Z,97.4
2018-08-27T04:27:37.392Z,97.4
2018-08-27T04:28:37.559Z,97.2
2018-08-27T04:29:37.626Z,97.2
2018-08-27T04:30:37.565Z,97.2
2018-08-27T04:31:37.501Z,97.3
2018-08-27T04:32:37.447Z,97.5
2018-08-27T04:33:37.869Z,97.2
2018-08-27T04:34:37.794Z,97.2
2018-08-27T04:35:37.732Z,97.3
2018-08-27T04:36:37.648Z,97.3
2018-08-27T04:37:37.593Z,97.2
2018-08-27T04:38:37.542Z,97.1
2018-08-27T04:39:37.464Z,97.2
2018-08-27T04:40:37.388Z,97.1
2018-08-27T04:41:37.533Z,97.2
2018-08-27T04:42:37.825Z,97.2
2018-08-27T04:43:38.768Z,97.3
2018-08-27T04:44:39.723Z,97.3
2018-08-27T04:45:39.630Z,97.3
2018-08-27T04:46:39.589Z,97.3
2018-08-27T04:47:39.624Z,97.3
2018-08-27T04:48:39.570Z,97.3
2018-08-27T04:49:39.510Z,97.3
2018-08-27T04:50:39.444Z,97.3
2018-08-27T04:51:39.413Z,97.4
2018-08-27T04:52:39.364Z,97.4
2018-08-27T04:53:39.741Z,97.3
2018-08-27T04:54:39.694Z,97.3
2018-08-27T04:55:39.623Z,97.4
2018-08-27T04:56:39.589Z,97.4
2018-08-27T04:57:39.520Z,97.4
2018-08-27T04:58:42.505Z,97.4
2018-08-27T04:59:42.478Z,97.3
2018-08-27T05:00:42.408Z,97.4
2018-08-27T05:01:42.573Z,97.4
2018-08-27T05:02:42.497Z,97.3
2018-08-27T05:03:45.775Z,97.4
2018-08-27T05:04:45.720Z,97.4
2018-08-27T05:05:48.642Z,97.2
2018-08-27T05:06:48.616Z,97.2
2018-08-27T05:07:48.532Z,97.3
2018-08-27T05:08:51.441Z,97.4
2018-08-27T05:09:51.355Z,97.1
2018-08-27T05:10:51.279Z,97
2018-08-27T05:11:51.186Z,97.3
2018-08-27T05:12:51.100Z,97.1
2018-08-27T05:13:51.494Z,97.2
2018-08-27T05:14:51.440Z,96.9
2018-08-27T05:15:51.377Z,96.8
2018-08-27T05:16:51.311Z,96.9
2018-08-27T05:17:51.291Z,96.9
2018-08-27T05:18:51.211Z,96.7
2018-08-27T05:19:51.158Z,96.6
2018-08-27T05:20:51.125Z,96.5
2018-08-27T05:21:51.052Z,96.6
2018-08-27T05:22:51.200Z,96.6
2018-08-27T05:23:51.815Z,96.8
2018-08-27T05:24:51.740Z,96.3
2018-08-27T05:25:51.674Z,96.2
2018-08-27T05:26:51.585Z,96.3
2018-08-27T05:27:51.488Z,96.3
2018-08-27T05:28:51.413Z,96.3
2018-08-27T05:29:51.324Z,96.3
2018-08-27T05:30:51.460Z,96.1
2018-08-27T05:31:51.979Z,96.3
2018-08-27T05:32:51.928Z,96.5
2018-08-27T05:33:52.296Z,96.2
2018-08-27T05:34:52.251Z,96.4
2018-08-27T05:35:52.177Z,96.3
2018-08-27T05:36:52.146Z,96.4
2018-08-27T05:37:52.072Z,96.3
2018-08-27T05:38:51.987Z,96.1
2018-08-27T05:39:52.592Z,96.1
2018-08-27T05:40:52.509Z,96.1
2018-08-27T05:41:52.463Z,96
2018-08-27T05:42:52.387Z,96
2018-08-27T05:43:52.765Z,95.6
2018-08-27T05:44:52.921Z,95.7
2018-08-27T05:45:52.826Z,95.9
2018-08-27T05:46:52.775Z,95.7
2018-08-27T05:47:53.579Z,95.6
2018-08-27T05:48:53.499Z,95.6
2018-08-27T05:49:53.672Z,95.7
2018-08-27T05:50:53.589Z,95.7
2018-08-27T05:51:53.534Z,95.8
2018-08-27T05:52:53.470Z,95.7
2018-08-27T05:53:53.853Z,96
2018-08-27T05:54:53.785Z,95.9
2018-08-27T05:55:53.715Z,95.7
2018-08-27T05:56:54.648Z,95.6
2018-08-27T05:57:55.344Z,95.6
2018-08-27T05:58:55.308Z,95.7
2018-08-27T05:59:55.222Z,95.5
2018-08-27T06:00:55.128Z,95.5
2018-08-27T06:01:55.347Z,95.7
2018-08-27T06:02:55.553Z,95.8
2018-08-27T06:03:55.956Z,95.6
2018-08-27T06:04:55.889Z,95.4
2018-08-27T06:05:58.764Z,95.5
2018-08-27T06:06:58.907Z,95.4
2018-08-27T06:07:58.844Z,95.5
2018-08-27T06:08:58.751Z,95.3
2018-08-27T06:09:59.367Z,95.4
2018-08-27T06:10:59.428Z,95.4
2018-08-27T06:11:59.442Z,95.2
2018-08-27T06:12:59.362Z,95.2
2018-08-27T06:13:59.732Z,95
2018-08-27T06:14:59.695Z,94.9
2018-08-27T06:15:59.800Z,94.7
2018-08-27T06:16:59.919Z,94.8
2018-08-27T06:17:59.866Z,95
2018-08-27T06:18:59.825Z,95.1
2018-08-27T06:19:59.800Z,95.1
2018-08-27T06:20:59.712Z,94.8
2018-08-27T06:21:59.983Z,94.5
2018-08-27T06:23:01.317Z,94.3
2018-08-27T06:24:01.708Z,94.7
2018-08-27T06:25:01.893Z,94.7
2018-08-27T06:26:03.027Z,94.6
2018-08-27T06:27:02.949Z,94.7
2018-08-27T06:28:02.865Z,94.5
2018-08-27T06:29:02.860Z,94.7
2018-08-27T06:30:02.780Z,94.7
2018-08-27T06:31:02.735Z,95.1
2018-08-27T06:32:02.651Z,94.9
2018-08-27T06:33:02.564Z,94.6
2018-08-27T06:34:02.951Z,94.9
2018-08-27T06:35:03.038Z,94.9
2018-08-27T06:36:03.094Z,94.8
2018-08-27T06:37:03.020Z,94.9
2018-08-27T06:38:03.293Z,94.7
2018-08-27T06:39:03.623Z,94.6
2018-08-27T06:40:03.575Z,94.7
2018-08-27T06:41:03.497Z,94.7
2018-08-27T06:42:04.415Z,94.9
2018-08-27T06:43:04.327Z,95
2018-08-27T06:44:04.716Z,94.7
2018-08-27T06:45:04.649Z,94.6
2018-08-27T06:46:04.597Z,94.4
2018-08-27T06:47:04.546Z,94.3
2018-08-27T06:48:04.463Z,94.1
2018-08-27T06:49:04.395Z,94.1
2018-08-27T06:50:04.352Z,94.2
2018-08-27T06:51:04.288Z,94.3
2018-08-27T06:52:04.196Z,94.2
2018-08-27T06:53:04.125Z,93.8
2018-08-27T06:54:04.489Z,93.6
2018-08-27T06:55:04.484Z,93.9
2018-08-27T06:56:04.394Z,94
2018-08-27T06:57:04.321Z,93.8
2018-08-27T06:58:04.240Z,93.8
2018-08-27T06:59:04.144Z,93.9
2018-08-27T07:00:04.061Z,94
2018-08-27T07:01:04.456Z,93.6
2018-08-27T07:02:04.395Z,93.7
2018-08-27T07:03:04.318Z,93.6
2018-08-27T07:04:05.152Z,93.8
2018-08-27T07:05:05.058Z,93.3
2018-08-27T07:06:04.976Z,93.3
2018-08-27T07:07:04.908Z,93.4
2018-08-27T07:08:04.845Z,93.6
2018-08-27T07:09:04.757Z,93.5
2018-08-27T07:10:04.681Z,93.3
2018-08-27T07:11:04.609Z,93.6
2018-08-27T07:12:04.552Z,93.8
2018-08-27T07:13:04.466Z,93.6
2018-08-27T07:14:04.813Z,93.4
2018-08-27T07:15:04.750Z,93.3
2018-08-27T07:16:04.667Z,93.4
2018-08-27T07:17:04.602Z,93.6
2018-08-27T07:18:04.760Z,93.8
2018-08-27T07:19:04.674Z,93.1
2018-08-27T07:20:04.777Z,93
2018-08-27T07:21:04.859Z,92.9
2018-08-27T07:22:07.438Z,93.1
2018-08-27T07:23:07.329Z,92.8
2018-08-27T07:24:07.697Z,92.6
2018-08-27T07:25:07.624Z,92.6
2018-08-27T07:26:07.533Z,92.4
2018-08-27T07:27:07.469Z,92.5
2018-08-27T07:28:07.375Z,92.3
2018-08-27T07:29:07.284Z,92.5
2018-08-27T07:30:07.451Z,92.1
2018-08-27T07:31:07.373Z,92.1
2018-08-27T07:32:07.306Z,92.4
2018-08-27T07:33:07.255Z,92.3
2018-08-27T07:34:07.622Z,92.2
2018-08-27T07:35:07.553Z,92
2018-08-27T07:36:07.832Z,92.3
2018-08-27T07:37:08.131Z,92
2018-08-27T07:38:08.063Z,92
2018-08-27T07:39:08.005Z,91.8
2018-08-27T07:40:07.995Z,92
2018-08-27T07:41:07.912Z,91.8
2018-08-27T07:42:07.872Z,91.6
2018-08-27T07:43:07.771Z,91.6
2018-08-27T07:44:08.799Z,91.3
2018-08-27T07:45:08.782Z,91.3
2018-08-27T07:46:08.723Z,91.3
2018-08-27T07:47:08.744Z,91.5
2018-08-27T07:48:08.737Z,91.9
2018-08-27T07:49:08.656Z,91.5
2018-08-27T07:50:08.588Z,91.9
2018-08-27T07:51:08.688Z,91.5
2018-08-27T07:52:08.780Z,91.4
2018-08-27T07:53:08.682Z,90.7
2018-08-27T07:54:09.086Z,91
2018-08-27T07:55:09.003Z,90.3
2018-08-27T07:56:08.945Z,90.6
2018-08-27T07:57:08.874Z,91.1
2018-08-27T07:58:09.038Z,90.9
2018-08-27T07:59:08.986Z,91
2018-08-27T08:00:08.895Z,90.9
2018-08-27T08:01:09.022Z,90.6
2018-08-27T08:02:08.954Z,90.7
2018-08-27T08:03:08.864Z,89
2018-08-27T08:04:09.590Z,90
2018-08-27T08:05:09.517Z,90.2
2018-08-27T08:06:09.420Z,89.2
2018-08-27T08:07:09.825Z,88.3
2018-08-27T08:08:09.838Z,88
2018-08-27T08:09:09.756Z,88.6
2018-08-27T08:10:09.680Z,89.1
2018-08-27T08:11:09.610Z,88.4
2018-08-27T08:12:09.549Z,86
2018-08-27T08:13:09.500Z,85.7
2018-08-27T08:14:09.867Z,85.4
2018-08-27T08:15:09.797Z,83.9
2018-08-27T08:16:09.710Z,85.2
2018-08-27T08:17:18.469Z,85.3
2018-08-27T08:18:18.393Z,85.2
2018-08-27T08:19:18.335Z,84
2018-08-27T08:20:18.254Z,85.3
2018-08-27T08:21:18.168Z,84.9
2018-08-27T08:22:21.059Z,84.8
2018-08-27T08:23:21.013Z,83.7
2018-08-27T08:24:21.387Z,84.5
2018-08-27T08:25:21.315Z,83.1
2018-08-27T08:26:21.251Z,84.4
2018-08-27T08:27:21.179Z,81.5
2018-08-27T08:28:21.151Z,82.1
2018-08-27T08:29:21.055Z,82.8
2018-08-27T08:30:20.958Z,82.5
2018-08-27T08:31:20.882Z,81.2
2018-08-27T08:32:20.796Z,78.6
2018-08-27T08:33:21.271Z,81.1
2018-08-27T08:34:22.446Z,81.2
2018-08-27T08:35:22.350Z,81.6
2018-08-27T08:36:22.256Z,82.4
2018-08-27T08:37:25.216Z,82.8
2018-08-27T08:38:25.169Z,82.6
2018-08-27T08:39:25.088Z,82.7
2018-08-27T08:40:25.092Z,79.9
2018-08-27T08:41:25.001Z,78.9
2018-08-27T08:42:24.925Z,80
2018-08-27T08:43:24.851Z,78.8
2018-08-27T08:44:25.225Z,78.3
2018-08-27T08:45:25.377Z,78.4
2018-08-27T08:46:25.289Z,77.8
2018-08-27T08:47:25.221Z,79.8
2018-08-27T08:48:25.146Z,81.5
2018-08-27T08:49:25.084Z,77.6
2018-08-27T08:50:25.001Z,79.2
2018-08-27T08:51:24.932Z,79
2018-08-27T08:52:24.861Z,80.1
2018-08-27T08:53:25.055Z,80
2018-08-27T08:54:25.678Z,79.4
2018-08-27T08:55:25.601Z,80
2018-08-27T08:56:25.507Z,80.9
2018-08-27T08:57:25.424Z,79.6
2018-08-27T08:58:25.339Z,75.8
2018-08-27T08:59:25.245Z,77.4
2018-08-27T09:00:28.029Z,78.9
2018-08-27T09:01:28.130Z,80.1
2018-08-27T09:02:28.103Z,79.6
2018-08-27T09:03:28.681Z,78
2018-08-27T09:04:29.029Z,76.8
2018-08-27T09:05:29.655Z,78.1
2018-08-27T09:06:30.033Z,75.2
2018-08-27T09:07:30.349Z,76.5
2018-08-27T09:08:30.566Z,76.4
2018-08-27T09:09:30.748Z,74.4
2018-08-27T09:10:30.708Z,76.1
2018-08-27T09:11:30.629Z,77.4
2018-08-27T09:12:30.538Z,79.5
2018-08-27T09:13:31.465Z,76.6
2018-08-27T09:14:31.835Z,71.1
2018-08-27T09:15:31.775Z,70.6
2018-08-27T09:16:31.749Z,73
2018-08-27T09:17:32.081Z,72.3
2018-08-27T09:18:32.142Z,72.7
2018-08-27T09:19:32.070Z,72.1
2018-08-27T09:20:31.998Z,73
2018-08-27T09:21:31.931Z,71.6
2018-08-27T09:22:31.834Z,71.9
2018-08-27T09:23:31.832Z,71.9
2018-08-27T09:24:32.370Z,73.6
2018-08-27T09:25:32.303Z,74.8
2018-08-27T09:26:32.278Z,76.1
2018-08-27T09:27:32.206Z,73.4
2018-08-27T09:28:32.138Z,73.9
2018-08-27T09:29:32.061Z,75.8
2018-08-27T09:30:31.995Z,73.2
2018-08-27T09:31:32.702Z,70.8
2018-08-27T09:32:32.628Z,67.7
2018-08-27T09:33:32.549Z,69.2
2018-08-27T09:34:33.921Z,70.2
2018-08-27T09:35:33.860Z,71.8
2018-08-27T09:36:33.825Z,69
2018-08-27T09:37:34.318Z,69.6
2018-08-27T09:38:34.653Z,69.9
2018-08-27T09:39:34.603Z,72.5
2018-08-27T09:40:34.530Z,73.5
2018-08-27T09:41:34.754Z,68.8
2018-08-27T09:42:34.892Z,68.5
2018-08-27T09:43:34.815Z,70.8
2018-08-27T09:44:35.161Z,71.5
2018-08-27T09:45:35.057Z,69.5
2018-08-27T09:46:34.965Z,69.5
2018-08-27T09:47:34.904Z,70.6
2018-08-27T09:48:34.823Z,70
2018-08-27T09:49:34.738Z,70.4
2018-08-27T09:50:34.662Z,67.3
2018-08-27T09:51:34.567Z,68.8
2018-08-27T09:52:34.650Z,68.6
2018-08-27T09:53:34.635Z,68.4
2018-08-27T09:54:34.975Z,69.4
2018-08-27T09:55:34.915Z,68.2
2018-08-27T09:56:34.860Z,69
2018-08-27T09:57:34.774Z,67.3
2018-08-27T09:58:34.894Z,68.5
2018-08-27T09:59:34.905Z,66.6
2018-08-27T10:00:34.842Z,63.9
2018-08-27T10:01:34.781Z,65.1
2018-08-27T10:02:34.694Z,66.4
2018-08-27T10:03:34.676Z,67.8
2018-08-27T10:04:35.055Z,68.1
2018-08-27T10:05:34.985Z,61.7
2018-08-27T10:06:34.923Z,65.7
2018-08-27T10:07:34.833Z,63.7
2018-08-27T10:08:34.739Z,64.9
2018-08-27T10:09:35.721Z,63.9
2018-08-27T10:10:35.633Z,64.1
2018-08-27T10:11:36.567Z,62.9
2018-08-27T10:12:36.479Z,59.6
2018-08-27T10:13:36.454Z,59.6
2018-08-27T10:14:36.832Z,59.6
2018-08-27T10:15:36.742Z,59.1
2018-08-27T10:16:39.652Z,59.8
2018-08-27T10:17:39.614Z,61.5
2018-08-27T10:18:39.540Z,60.9
2018-08-27T10:19:39.485Z,63.2
2018-08-27T10:20:39.395Z,59.8
2018-08-27T10:21:39.545Z,65.9
2018-08-27T10:22:39.973Z,66.9
2018-08-27T10:23:40.197Z,63.7
2018-08-27T10:24:40.846Z,63
2018-08-27T10:25:40.766Z,59.7
2018-08-27T10:26:40.665Z,61.9
2018-08-27T10:27:40.616Z,59.7
2018-08-27T10:28:40.545Z,59.4
2018-08-27T10:29:40.548Z,61.6
2018-08-27T10:30:40.522Z,59.9
2018-08-27T10:31:40.445Z,58.7
2018-08-27T10:32:40.343Z,59.4
2018-08-27T10:33:40.509Z,57.2
2018-08-27T10:34:40.882Z,57.3
2018-08-27T10:35:40.844Z,57.2
2018-08-27T10:36:40.812Z,58.7
2018-08-27T10:37:40.771Z,62.1
2018-08-27T10:38:40.907Z,63.7
2018-08-27T10:39:40.834Z,64.5
2018-08-27T10:40:40.747Z,63.1
2018-08-27T10:41:40.690Z,62.3
2018-08-27T10:42:40.804Z,60.6
2018-08-27T10:43:40.830Z,61.3
2018-08-27T10:44:41.204Z,59.3
2018-08-27T10:45:41.184Z,59.2
2018-08-27T10:46:41.109Z,59.4
2018-08-27T10:47:41.048Z,60.5
2018-08-27T10:48:44.120Z,60.3
2018-08-27T10:49:44.030Z,61.5
2018-08-27T10:50:43.959Z,63.8
2018-08-27T10:51:43.895Z,64.4
2018-08-27T10:52:43.822Z,62.3
2018-08-27T10:53:43.725Z,59.3
2018-08-27T10:54:44.098Z,60.9
2018-08-27T10:55:44.022Z,59.9
2018-08-27T10:56:43.957Z,58.9
2018-08-27T10:57:44.207Z,60.9
2018-08-27T10:58:44.658Z,62.9
2018-08-27T10:59:44.570Z,60
2018-08-27T11:00:44.511Z,59.8
2018-08-27T11:01:44.428Z,61.3
2018-08-27T11:02:44.362Z,61.1
2018-08-27T11:03:44.270Z,60.3
2018-08-27T11:04:44.866Z,58.4
2018-08-27T11:05:44.771Z,60.4
2018-08-27T11:06:44.708Z,60.7
2018-08-27T11:07:44.876Z,61.4
2018-08-27T11:08:44.827Z,60.6
2018-08-27T11:09:44.761Z,61
2018-08-27T11:10:45.083Z,60.7
2018-08-27T11:11:45.308Z,59.9
2018-08-27T11:12:45.233Z,58.5
2018-08-27T11:13:45.185Z,58.6
2018-08-27T11:14:45.576Z,60.2
2018-08-27T11:15:45.487Z,63.3
2018-08-27T11:16:45.404Z,63.7
2018-08-27T11:17:45.306Z,61.5
2018-08-27T11:18:45.286Z,62.9
2018-08-27T11:19:45.835Z,62.2
2018-08-27T11:20:46.482Z,59
2018-08-27T11:21:46.406Z,59.3
2018-08-27T11:22:46.326Z,59.9
2018-08-27T11:23:46.255Z,59.7
2018-08-27T11:24:46.871Z,59.7
2018-08-27T11:25:46.783Z,60.8
2018-08-27T11:26:47.652Z,61
2018-08-27T11:27:47.968Z,60.2
2018-08-27T11:28:50.817Z,58.2
2018-08-27T11:29:50.736Z,58.7
2018-08-27T11:30:50.887Z,60.6
2018-08-27T11:31:51.062Z,59
2018-08-27T11:32:51.424Z,60.8
2018-08-27T11:33:51.594Z,61.4
2018-08-27T11:34:51.977Z,58.8
2018-08-27T11:35:51.903Z,59.1
2018-08-27T11:36:51.842Z,59.2
2018-08-27T11:37:51.977Z,59.7
2018-08-27T11:38:51.885Z,63.3
2018-08-27T11:39:52.049Z,62.1
2018-08-27T11:40:51.966Z,59.5
2018-08-27T11:41:52.130Z,59.1
2018-08-27T11:42:52.050Z,59.9
2018-08-27T11:43:51.963Z,60.3
2018-08-27T11:44:52.382Z,59.7
2018-08-27T11:45:52.302Z,59.6
2018-08-27T11:46:52.241Z,59.8
2018-08-27T11:47:52.176Z,58.9
2018-08-27T11:48:52.114Z,57.6
2018-08-27T11:49:52.072Z,58
2018-08-27T11:50:53.209Z,58.2
2018-08-27T11:51:53.833Z,58.1
2018-08-27T11:52:53.995Z,58.8
2018-08-27T11:53:53.910Z,59.9
2018-08-27T11:54:54.384Z,59.2
2018-08-27T11:55:55.410Z,58.8
2018-08-27T11:56:55.330Z,58.1
2018-08-27T11:57:58.024Z,58.9
2018-08-27T11:58:58.398Z,59.4
2018-08-27T11:59:58.329Z,58.7
2018-08-27T12:00:58.972Z,59
2018-08-27T12:01:59.173Z,59.3
2018-08-27T12:02:59.402Z,60.1
2018-08-27T12:03:59.552Z,60.7
2018-08-27T12:04:59.983Z,60.1
2018-08-27T12:05:59.902Z,59.4
2018-08-27T12:06:59.830Z,58.9
2018-08-27T12:08:01.305Z,59
2018-08-27T12:09:01.859Z,59.6
2018-08-27T12:10:02.949Z,60.1
2018-08-27T12:11:02.861Z,60.1
2018-08-27T12:12:02.985Z,59.1
2018-08-27T12:13:02.891Z,57.9
2018-08-27T12:14:06.820Z,58.2
2018-08-27T12:15:10.190Z,58.4
2018-08-27T12:16:10.104Z,58.4
2018-08-27T12:17:10.039Z,58.8
2018-08-27T12:18:10.177Z,59.4
2018-08-27T12:19:10.099Z,59.1
2018-08-27T12:20:15.544Z,58.6
2018-08-27T12:21:15.700Z,58.6
2018-08-27T12:22:15.620Z,59.6
2018-08-27T12:23:15.535Z,59.9
2018-08-27T12:24:15.447Z,60.9
2018-08-27T12:25:16.866Z,61.3
2018-08-27T12:26:16.785Z,60.7
2018-08-27T12:27:19.646Z,60.2
2018-08-27T12:28:19.578Z,57.8
2018-08-27T12:29:20.831Z,58.7
2018-08-27T12:30:20.903Z,57.4
2018-08-27T12:31:20.832Z,56.5
2018-08-27T12:32:20.752Z,56.5
2018-08-27T12:33:20.659Z,56.9
2018-08-27T12:34:20.572Z,57
2018-08-27T12:35:21.158Z,56.9
2018-08-27T12:36:23.835Z,56.9
2018-08-27T12:37:23.753Z,57.3
2018-08-27T12:38:23.679Z,58.4
2018-08-27T12:39:23.585Z,58.4
2018-08-27T12:40:23.620Z,57.9
2018-08-27T12:41:24.012Z,58.8
2018-08-27T12:42:24.140Z,59.1
2018-08-27T12:43:24.795Z,58.6
2018-08-27T12:44:24.787Z,57.8
2018-08-27T12:45:25.121Z,57.7
2018-08-27T12:46:26.029Z,56.6
2018-08-27T12:47:25.944Z,57.3
2018-08-27T12:48:25.845Z,57.6
2018-08-27T12:49:25.763Z,57
2018-08-27T12:50:25.698Z,58.5
2018-08-27T12:51:26.314Z,56.9
2018-08-27T12:52:26.717Z,57.2
2018-08-27T12:53:26.621Z,58.6
2018-08-27T12:54:26.524Z,56.6
2018-08-27T12:55:27.583Z,56.9
2018-08-27T12:56:27.499Z,57.9
2018-08-27T12:57:27.425Z,58.7
2018-08-27T12:58:27.781Z,58.9
2018-08-27T12:59:28.043Z,59.3
2018-08-27T13:00:28.540Z,57.2
2018-08-27T13:01:28.452Z,57.7
2018-08-27T13:02:28.377Z,58.1
2018-08-27T13:03:28.302Z,59.5
2018-08-27T13:04:28.209Z,59.3
2018-08-27T13:05:28.771Z,59.2
2018-08-27T13:06:28.694Z,59
2018-08-27T13:07:28.751Z,58.6
2018-08-27T13:08:28.709Z,58.3
2018-08-27T13:09:28.627Z,59.7
2018-08-27T13:10:28.564Z,58
2018-08-27T13:11:29.206Z,58.6
2018-08-27T13:12:30.036Z,57.9
2018-08-27T13:13:30.321Z,58.3
2018-08-27T13:14:30.239Z,59.4
2018-08-27T13:15:30.647Z,58.1
2018-08-27T13:16:30.561Z,58.6
2018-08-27T13:17:30.488Z,58.2
2018-08-27T13:18:30.405Z,58
2018-08-27T13:19:30.321Z,59.6
2018-08-27T13:20:30.474Z,60
2018-08-27T13:21:30.406Z,58.3
2018-08-27T13:22:30.330Z,58.1
2018-08-27T13:23:30.260Z,57.9
2018-08-27T13:24:30.193Z,58.1
2018-08-27T13:25:30.635Z,57.8
2018-08-27T13:26:30.579Z,58